Time;durP1;ratioP1;P1;durP2;ratioP2;P2;SDS_P1;SDS_P2;PMS_P1;PMS_P2;Temp;Humidity;BMP_temperature;BMP_pressure;BME280_temperature;BME280_humidity;BME280_pressure;Samples;Min_cycle;Max_cycle;Signal;HPM_P1;HPM_P2
2022/01/19 00:02:08;;;;;;;;;;;20.20;42.00;;;;;;5108290;28;19927;-51
2022/01/19 00:04:34;;;;;;;;;;;20.20;42.00;;;;;;5102793;28;19984;-46
2022/01/19 00:07:02;;;;;;;;;;;20.20;42.00;;;;;;5108755;28;20015;-45
2022/01/19 00:09:29;;;;;;;;;;;20.20;42.00;;;;;;5098546;28;20157;-48
2022/01/19 00:11:56;;;;;;;;;;;20.20;42.00;;;;;;5112788;28;20014;-43
2022/01/19 00:14:23;;;;;;;;;;;20.20;42.00;;;;;;5125697;27;20384;-44
2022/01/19 00:16:51;;;;;;;;;;;20.20;42.00;;;;;;5118764;27;20265;-44
2022/01/19 00:19:18;;;;;;;;;;;20.20;42.00;;;;;;5112787;27;19946;-44
2022/01/19 00:21:45;;;;;;;;;;;20.20;42.00;;;;;;5130639;27;19962;-43
2022/01/19 00:24:12;;;;;;;;;;;20.20;42.00;;;;;;5108113;27;20295;-46
2022/01/19 00:26:39;;;;;;;;;;;20.20;41.90;;;;;;5110954;27;20340;-42
2022/01/19 00:29:06;;;;;;;;;;;20.20;41.90;;;;;;5129778;27;19919;-47
2022/01/19 00:31:35;;;;;;;;;;;20.20;41.90;;;;;;5131730;27;19933;-42
2022/01/19 00:34:03;;;;;;;;;;;20.20;41.90;;;;;;5135407;27;20353;-44
2022/01/19 00:36:30;;;;;;;;;;;20.20;41.90;;;;;;5109668;27;20371;-43
2022/01/19 00:38:57;;;;;;;;;;;20.20;41.90;;;;;;5127155;27;20304;-46
2022/01/19 00:41:24;;;;;;;;;;;20.20;41.90;;;;;;5128457;27;20372;-44
2022/01/19 00:43:50;;;;;;;;;;;20.20;41.90;;;;;;5137111;27;19992;-44
2022/01/19 00:46:17;;;;;;;;;;;20.20;41.90;;;;;;5110820;27;20432;-45
2022/01/19 00:48:46;;;;;;;;;;;20.20;41.90;;;;;;5108928;27;20299;-45
2022/01/19 00:51:16;;;;;;;;;;;20.20;41.90;;;;;;5128649;27;20265;-46
2022/01/19 00:53:43;;;;;;;;;;;20.20;41.90;;;;;;5112505;27;20368;-44
2022/01/19 00:56:10;;;;;;;;;;;20.20;41.80;;;;;;5109014;27;19963;-45
2022/01/19 00:58:37;;;;;;;;;;;20.20;41.80;;;;;;5114328;27;20376;-44
2022/01/19 01:01:03;;;;;;;;;;;20.20;41.80;;;;;;5111838;27;19924;-42
2022/01/19 01:03:30;;;;;;;;;;;20.20;41.80;;;;;;5113051;27;20028;-49
2022/01/19 01:05:57;;;;;;;;;;;20.20;41.80;;;;;;5111780;27;19949;-44
2022/01/19 01:08:25;;;;;;;;;;;20.20;41.80;;;;;;5142876;27;20492;-45
2022/01/19 01:10:52;;;;;;;;;;;20.20;41.80;;;;;;5126293;27;19928;-45
2022/01/19 01:13:23;;;;;;;;;;;20.20;41.80;;;;;;5112425;27;20026;-46
2022/01/19 01:16:01;;;;;;;;;;;20.20;41.80;;;;;;5110728;27;19923;-47
2022/01/19 01:18:28;;;;;;;;;;;20.20;41.80;;;;;;5108305;27;19928;-43
2022/01/19 01:20:56;;;;;;;;;;;20.20;41.80;;;;;;5111117;27;19930;-47
2022/01/19 01:23:23;;;;;;;;;;;20.20;41.70;;;;;;5106563;27;19985;-44
2022/01/19 01:25:51;;;;;;;;;;;20.20;41.80;;;;;;5110513;27;19924;-46
2022/01/19 01:28:18;;;;;;;;;;;20.20;41.80;;;;;;5132020;27;19958;-44
2022/01/19 01:30:45;;;;;;;;;;;20.20;41.80;;;;;;5106619;27;19923;-48
2022/01/19 01:33:14;;;;;;;;;;;20.20;41.70;;;;;;5111903;27;20014;-49
2022/01/19 01:35:41;;;;;;;;;;;20.20;41.70;;;;;;5123810;27;19930;-44
2022/01/19 01:38:09;;;;;;;;;;;20.20;41.70;;;;;;5129422;27;19931;-45
2022/01/19 01:40:36;;;;;;;;;;;20.20;41.70;;;;;;5111332;27;20304;-44
2022/01/19 01:43:05;;;;;;;;;;;20.20;41.70;;;;;;5129783;27;19931;-44
2022/01/19 01:45:35;;;;;;;;;;;20.20;41.70;;;;;;5110320;27;19927;-47
2022/01/19 01:48:07;;;;;;;;;;;20.20;41.70;;;;;;5111420;27;20367;-43
2022/01/19 01:53:28;;;;;;;;;;;20.20;41.70;;;;;;5138146;27;19942;-46
2022/01/19 01:56:01;;;;;;;;;;;20.20;41.70;;;;;;5124426;27;20014;-47
2022/01/19 01:58:30;;;;;;;;;;;20.20;41.70;;;;;;5143835;27;19923;-45
2022/01/19 02:00:56;;;;;;;;;;;20.20;41.70;;;;;;5112200;27;19937;-44
2022/01/19 02:03:23;;;;;;;;;;;20.20;41.70;;;;;;5111611;27;20018;-44
2022/01/19 02:08:41;;;;;;;;;;;20.20;41.70;;;;;;5088302;27;19958;-43
2022/01/19 02:11:33;;;;;;;;;;;20.20;41.70;;;;;;5103984;27;20349;-45
2022/01/19 02:22:32;;;;;;;;;;;20.20;41.60;;;;;;5103888;27;20011;-47
2022/01/19 02:24:59;;;;;;;;;;;20.20;41.60;;;;;;5129200;27;19931;-43
2022/01/19 02:30:41;;;;;;;;;;;20.20;41.60;;;;;;5106167;27;20273;-44
2022/01/19 02:41:21;;;;;;;;;;;20.20;41.60;;;;;;5110527;27;20033;-43
2022/01/19 02:43:50;;;;;;;;;;;20.20;41.60;;;;;;5110753;27;19923;-44
2022/01/19 02:46:40;;;;;;;;;;;20.10;41.50;;;;;;5110252;27;19983;-44
2022/01/19 02:49:16;;;;;;;;;;;20.20;41.60;;;;;;5110674;27;19923;-43
2022/01/19 02:51:46;;;;;;;;;;;20.20;41.60;;;;;;5103296;27;19927;-47
2022/01/19 02:54:13;;;;;;;;;;;20.20;41.60;;;;;;5104370;27;20011;-46
2022/01/19 02:56:43;;;;;;;;;;;20.10;41.50;;;;;;5111790;27;20277;-47
2022/01/19 02:59:19;;;;;;;;;;;20.10;41.50;;;;;;5110312;27;19923;-44
2022/01/19 03:10:00;;;;;;;;;;;20.20;41.60;;;;;;5127943;27;19931;-43
2022/01/19 03:12:27;;;;;;;;;;;20.10;41.50;;;;;;5110234;27;19977;-46
2022/01/19 03:14:54;;;;;;;;;;;20.20;41.60;;;;;;5116590;27;20287;-44
2022/01/19 03:17:20;;;;;;;;;;;20.10;41.50;;;;;;5108774;27;19996;-47
2022/01/19 03:19:47;;;;;;;;;;;20.20;41.60;;;;;;5110453;27;19919;-43
2022/01/19 03:22:16;;;;;;;;;;;20.20;41.60;;;;;;5106895;27;19927;-47
2022/01/19 03:24:49;;;;;;;;;;;20.20;41.60;;;;;;5128365;27;19924;-45
2022/01/19 03:27:16;;;;;;;;;;;20.10;41.40;;;;;;5109327;27;19927;-45
2022/01/19 03:29:43;;;;;;;;;;;20.10;41.40;;;;;;5110054;27;19924;-46
2022/01/19 03:32:10;;;;;;;;;;;20.20;41.60;;;;;;5126670;27;19938;-46
2022/01/19 03:34:37;;;;;;;;;;;20.20;41.50;;;;;;5127011;27;20030;-45
2022/01/19 03:37:04;;;;;;;;;;;20.20;41.50;;;;;;5107612;27;19988;-44
2022/01/19 03:39:32;;;;;;;;;;;20.20;41.50;;;;;;5109423;27;19935;-46
2022/01/19 03:41:59;;;;;;;;;;;20.10;41.40;;;;;;5106757;28;19927;-46
2022/01/19 03:44:26;;;;;;;;;;;20.10;41.40;;;;;;5109925;28;19979;-46
2022/01/19 03:46:57;;;;;;;;;;;20.10;41.40;;;;;;5127363;27;19985;-46
2022/01/19 03:49:25;;;;;;;;;;;20.20;41.50;;;;;;5107565;27;19984;-46
2022/01/19 03:51:52;;;;;;;;;;;20.10;41.40;;;;;;5115583;27;19928;-49
2022/01/19 03:54:18;;;;;;;;;;;20.10;41.40;;;;;;5142493;27;19966;-46
2022/01/19 03:56:47;;;;;;;;;;;20.10;41.40;;;;;;5114209;27;20467;-46
2022/01/19 03:59:14;;;;;;;;;;;20.10;41.40;;;;;;5112629;27;19931;-45
2022/01/19 04:01:44;;;;;;;;;;;20.10;41.40;;;;;;5112813;27;19938;-46
2022/01/19 04:07:01;;;;;;;;;;;20.10;41.40;;;;;;5109640;27;20000;-47
2022/01/19 04:09:28;;;;;;;;;;;20.10;41.30;;;;;;5096082;27;19930;-44
2022/01/19 04:11:56;;;;;;;;;;;20.10;41.30;;;;;;5131362;27;19986;-46
2022/01/19 04:14:25;;;;;;;;;;;20.10;41.30;;;;;;5109285;28;19935;-46
2022/01/19 04:16:52;;;;;;;;;;;20.10;41.30;;;;;;5132811;27;20342;-44
2022/01/19 04:19:25;;;;;;;;;;;20.10;41.30;;;;;;5123127;27;19924;-45
2022/01/19 04:21:52;;;;;;;;;;;20.10;41.40;;;;;;5131860;27;19963;-45
2022/01/19 04:24:19;;;;;;;;;;;20.10;41.30;;;;;;5138487;27;20010;-45
2022/01/19 04:26:50;;;;;;;;;;;20.20;41.40;;;;;;5115319;27;20031;-46
2022/01/19 04:29:18;;;;;;;;;;;20.10;41.30;;;;;;5112516;27;20376;-46
2022/01/19 04:31:45;;;;;;;;;;;20.10;41.30;;;;;;5113652;27;20022;-45
2022/01/19 04:34:14;;;;;;;;;;;20.10;41.30;;;;;;5110672;27;19923;-44
2022/01/19 04:37:10;;;;;;;;;;;20.10;41.30;;;;;;5130638;27;20018;-44
2022/01/19 04:45:32;;;;;;;;;;;20.10;41.20;;;;;;5106661;27;20010;-43
2022/01/19 05:01:44;;;;;;;;;;;20.10;41.20;;;;;;5110473;27;20296;-43
2022/01/19 05:04:23;;;;;;;;;;;20.10;41.20;;;;;;5113241;27;20545;-42
2022/01/19 05:07:02;;;;;;;;;;;20.10;41.20;;;;;;5137267;27;19930;-41
2022/01/19 05:09:53;;;;;;;;;;;20.10;41.20;;;;;;5107504;27;19923;-44
2022/01/19 05:15:07;;;;;;;;;;;20.10;41.20;;;;;;5062483;27;19929;-42
2022/01/19 05:17:36;;;;;;;;;;;20.10;41.20;;;;;;5128622;27;20456;-45
2022/01/19 05:20:03;;;;;;;;;;;20.10;41.70;;;;;;5112529;27;19969;-44
2022/01/19 05:22:40;;;;;;;;;;;20.10;41.80;;;;;;5111463;27;19930;-46
2022/01/19 05:25:08;;;;;;;;;;;20.10;41.20;;;;;;5139540;27;20039;-44
2022/01/19 05:27:36;;;;;;;;;;;20.10;41.10;;;;;;5110526;27;20361;-43
2022/01/19 05:30:02;;;;;;;;;;;20.10;41.20;;;;;;5102525;27;20018;-43
2022/01/19 05:32:29;;;;;;;;;;;20.10;41.20;;;;;;5128357;27;19938;-47
2022/01/19 05:34:59;;;;;;;;;;;20.10;41.20;;;;;;5127468;27;19969;-44
2022/01/19 05:37:25;;;;;;;;;;;20.10;41.10;;;;;;5109137;27;19931;-44
2022/01/19 05:39:52;;;;;;;;;;;20.10;41.10;;;;;;5113650;27;20018;-46
2022/01/19 05:42:19;;;;;;;;;;;20.10;41.10;;;;;;5111893;27;19930;-44
2022/01/19 05:44:47;;;;;;;;;;;20.10;41.10;;;;;;5125304;27;19931;-44
2022/01/19 05:47:14;;;;;;;;;;;20.10;41.10;;;;;;5111240;27;20560;-45
2022/01/19 05:49:43;;;;;;;;;;;20.10;41.10;;;;;;5113520;27;19923;-45
2022/01/19 05:52:11;;;;;;;;;;;20.10;41.10;;;;;;5111723;27;19931;-46
2022/01/19 05:54:39;;;;;;;;;;;20.10;41.10;;;;;;5116203;27;19946;-45
2022/01/19 05:57:06;;;;;;;;;;;20.10;41.10;;;;;;5129508;27;19924;-46
2022/01/19 05:59:32;;;;;;;;;;;20.10;41.10;;;;;;5109708;27;19927;-44
2022/01/19 06:02:00;;;;;;;;;;;20.10;41.10;;;;;;5127439;27;20281;-44
2022/01/19 06:04:26;;;;;;;;;;;20.10;41.10;;;;;;5108415;27;19934;-45
2022/01/19 06:06:55;;;;;;;;;;;20.10;41.10;;;;;;5110057;27;19930;-48
2022/01/19 06:09:34;;;;;;;;;;;20.10;41.10;;;;;;5106266;27;19946;-43
2022/01/19 06:12:03;;;;;;;;;;;20.10;41.10;;;;;;5125120;27;19980;-45
2022/01/19 06:14:29;;;;;;;;;;;20.10;41.00;;;;;;5128296;27;20277;-45
2022/01/19 06:16:56;;;;;;;;;;;20.10;41.10;;;;;;5110187;27;19924;-45
2022/01/19 06:19:23;;;;;;;;;;;20.10;41.00;;;;;;5110940;27;19930;-47
2022/01/19 06:21:51;;;;;;;;;;;20.10;41.10;;;;;;5107860;27;20392;-44
2022/01/19 06:24:18;;;;;;;;;;;20.10;41.00;;;;;;5112214;27;20516;-46
2022/01/19 06:26:46;;;;;;;;;;;20.10;41.00;;;;;;5110384;27;19931;-45
2022/01/19 06:29:13;;;;;;;;;;;20.10;41.00;;;;;;5106933;27;19939;-44
2022/01/19 06:31:39;;;;;;;;;;;20.10;41.00;;;;;;5107501;27;19928;-44
2022/01/19 06:34:06;;;;;;;;;;;20.10;41.00;;;;;;5103828;27;20014;-45
2022/01/19 06:36:33;;;;;;;;;;;20.10;41.00;;;;;;5113760;27;19928;-43
2022/01/19 06:39:00;;;;;;;;;;;20.10;41.00;;;;;;5109723;27;19923;-44
2022/01/19 06:41:26;;;;;;;;;;;20.10;41.00;;;;;;5144273;27;19980;-43
2022/01/19 06:43:55;;;;;;;;;;;20.10;41.00;;;;;;5107301;27;19938;-43
2022/01/19 06:46:22;;;;;;;;;;;20.10;41.00;;;;;;5127264;27;19980;-48
2022/01/19 06:48:48;;;;;;;;;;;20.10;41.00;;;;;;5107724;27;19933;-44
2022/01/19 06:51:15;;;;;;;;;;;20.10;41.00;;;;;;5125413;27;19934;-44
2022/01/19 06:53:42;;;;;;;;;;;20.10;41.00;;;;;;5126932;27;19970;-48
2022/01/19 06:56:09;;;;;;;;;;;20.10;41.00;;;;;;5134033;27;19923;-44
2022/01/19 06:58:35;;;;;;;;;;;20.10;41.00;;;;;;5109574;27;20718;-49
2022/01/19 07:01:06;;;;;;;;;;;20.10;41.00;;;;;;5113929;27;19979;-47
2022/01/19 07:03:33;;;;;;;;;;;20.10;41.60;;;;;;5104635;27;19927;-44
2022/01/19 07:06:00;;;;;;;;;;;20.10;41.00;;;;;;5104333;27;19930;-47
2022/01/19 07:08:27;;;;;;;;;;;20.10;41.00;;;;;;5099281;27;20335;-43
2022/01/19 07:10:56;;;;;;;;;;;20.10;40.90;;;;;;5105270;27;19930;-43
2022/01/19 07:13:23;;;;;;;;;;;20.10;40.90;;;;;;5126139;27;20543;-43
2022/01/19 07:15:50;;;;;;;;;;;20.10;40.90;;;;;;5108138;28;20312;-45
2022/01/19 07:18:18;;;;;;;;;;;20.10;40.90;;;;;;5106696;27;19959;-45
2022/01/19 07:20:44;;;;;;;;;;;20.10;40.90;;;;;;5108230;27;20022;-46
2022/01/19 07:23:11;;;;;;;;;;;20.10;40.90;;;;;;5106508;27;20383;-45
2022/01/19 07:25:38;;;;;;;;;;;20.10;40.90;;;;;;5125471;27;19969;-47
2022/01/19 07:28:08;;;;;;;;;;;20.10;40.90;;;;;;5106237;27;19931;-44
2022/01/19 07:30:34;;;;;;;;;;;20.10;40.90;;;;;;5106313;27;19945;-47
2022/01/19 07:33:01;;;;;;;;;;;20.10;40.90;;;;;;5108619;27;20435;-46
2022/01/19 07:35:30;;;;;;;;;;;20.10;40.90;;;;;;5107158;27;19939;-45
2022/01/19 07:37:57;;;;;;;;;;;20.10;40.90;;;;;;5107957;28;19924;-44
2022/01/19 07:40:23;;;;;;;;;;;20.10;40.90;;;;;;5103987;27;19957;-44
2022/01/19 07:42:51;;;;;;;;;;;20.10;40.90;;;;;;5107252;27;19923;-44
2022/01/19 07:45:18;;;;;;;;;;;20.10;40.90;;;;;;5107286;28;19923;-46
2022/01/19 07:47:44;;;;;;;;;;;20.10;40.90;;;;;;5106835;28;19927;-44
2022/01/19 07:50:11;;;;;;;;;;;20.10;40.90;;;;;;5108305;28;20249;-44
2022/01/19 07:52:39;;;;;;;;;;;20.10;40.90;;;;;;5108150;28;19976;-45
2022/01/19 07:55:07;;;;;;;;;;;20.10;40.90;;;;;;5108659;28;19980;-43
2022/01/19 07:57:35;;;;;;;;;;;20.10;40.90;;;;;;5109321;28;19970;-55
2022/01/19 08:00:03;;;;;;;;;;;20.10;40.90;;;;;;5111454;28;19923;-47
2022/01/19 08:02:33;;;;;;;;;;;20.10;40.80;;;;;;5105028;28;19986;-51
2022/01/19 08:05:02;;;;;;;;;;;20.10;40.40;;;;;;5129869;28;19934;-53
2022/01/19 08:07:29;;;;;;;;;;;20.10;40.10;;;;;;5129762;28;20072;-51
2022/01/19 08:09:57;;;;;;;;;;;20.10;39.80;;;;;;5110869;28;19946;-51
2022/01/19 08:12:24;;;;;;;;;;;20.10;39.60;;;;;;5114127;28;19932;-53
2022/01/19 08:14:51;;;;;;;;;;;20.00;39.30;;;;;;5115096;27;19927;-46
2022/01/19 08:17:19;;;;;;;;;;;20.00;39.30;;;;;;5100735;28;20439;-49
2022/01/19 08:19:47;;;;;;;;;;;20.00;39.30;;;;;;5104622;28;19923;-45
2022/01/19 08:22:15;;;;;;;;;;;20.00;39.30;;;;;;5108835;28;20014;-46
2022/01/19 08:24:42;;;;;;;;;;;20.00;39.30;;;;;;5105262;28;19939;-52
2022/01/19 08:27:10;;;;;;;;;;;20.00;39.30;;;;;;5143518;27;19950;-47
2022/01/19 08:29:37;;;;;;;;;;;20.00;39.20;;;;;;5105885;28;20000;-55
2022/01/19 08:32:05;;;;;;;;;;;20.00;39.20;;;;;;5102679;28;19947;-49
2022/01/19 08:34:32;;;;;;;;;;;20.00;39.20;;;;;;5105332;28;20261;-46
2022/01/19 08:36:59;;;;;;;;;;;20.00;39.20;;;;;;5108491;27;19927;-48
2022/01/19 08:39:26;;;;;;;;;;;20.00;39.20;;;;;;5111703;27;19954;-48
2022/01/19 08:41:53;;;;;;;;;;;20.00;39.30;;;;;;5100431;27;20419;-51
2022/01/19 08:44:21;;;;;;;;;;;19.90;39.10;;;;;;5107147;27;19931;-50
2022/01/19 08:46:48;;;;;;;;;;;19.90;39.10;;;;;;5099973;27;19935;-50
2022/01/19 08:49:14;;;;;;;;;;;19.90;39.70;;;;;;5129354;27;19988;-53
2022/01/19 08:51:43;;;;;;;;;;;19.90;39.10;;;;;;5111681;27;19938;-48
2022/01/19 08:54:11;;;;;;;;;;;19.90;39.00;;;;;;5128512;27;19984;-54
2022/01/19 08:56:38;;;;;;;;;;;19.90;39.00;;;;;;5127547;27;19919;-49
2022/01/19 08:59:06;;;;;;;;;;;19.90;39.10;;;;;;5148543;27;19955;-49
2022/01/19 09:01:34;;;;;;;;;;;19.90;39.00;;;;;;5094989;27;20543;-51
2022/01/19 09:04:01;;;;;;;;;;;19.90;39.00;;;;;;5105168;27;19962;-49
2022/01/19 09:06:28;;;;;;;;;;;19.90;39.10;;;;;;5108460;27;19924;-52
2022/01/19 09:08:55;;;;;;;;;;;19.90;39.10;;;;;;5126144;27;19930;-48
2022/01/19 09:11:22;;;;;;;;;;;19.90;39.10;;;;;;5109330;27;20404;-48
2022/01/19 09:13:49;;;;;;;;;;;19.90;39.10;;;;;;5106396;27;19931;-52
2022/01/19 09:16:16;;;;;;;;;;;19.90;39.00;;;;;;5106593;27;19923;-48
2022/01/19 09:18:44;;;;;;;;;;;19.90;39.00;;;;;;5104250;27;19985;-53
2022/01/19 09:21:11;;;;;;;;;;;19.90;39.00;;;;;;5119384;27;20340;-48
2022/01/19 09:23:38;;;;;;;;;;;19.90;39.00;;;;;;5126121;27;19959;-52
2022/01/19 09:26:05;;;;;;;;;;;19.90;39.00;;;;;;5112844;27;20595;-51
2022/01/19 09:28:31;;;;;;;;;;;19.90;39.00;;;;;;5108323;27;19927;-50
2022/01/19 09:31:01;;;;;;;;;;;19.90;39.00;;;;;;5127462;27;20364;-48
2022/01/19 09:33:30;;;;;;;;;;;19.90;39.00;;;;;;5124696;27;19928;-51
2022/01/19 09:36:17;;;;;;;;;;;19.90;38.90;;;;;;5101207;27;19945;-47
2022/01/19 09:38:44;;;;;;;;;;;19.90;39.00;;;;;;5109101;27;20508;-52
2022/01/19 09:41:12;;;;;;;;;;;19.80;38.80;;;;;;5104954;27;20299;-51
2022/01/19 09:43:39;;;;;;;;;;;19.80;38.90;;;;;;5111930;27;19924;-54
2022/01/19 09:46:06;;;;;;;;;;;19.80;38.90;;;;;;5123104;27;20408;-55
2022/01/19 09:48:33;;;;;;;;;;;19.80;38.80;;;;;;5129640;27;19983;-52
2022/01/19 09:51:02;;;;;;;;;;;19.80;38.80;;;;;;5111851;27;19989;-52
2022/01/19 09:53:29;;;;;;;;;;;19.80;38.80;;;;;;5105445;27;19927;-51
2022/01/19 09:55:55;;;;;;;;;;;19.80;38.80;;;;;;5137872;27;20029;-57
2022/01/19 09:58:23;;;;;;;;;;;19.80;38.80;;;;;;5111299;27;19927;-53
2022/01/19 10:00:50;;;;;;;;;;;19.80;38.70;;;;;;5125281;27;19935;-49
2022/01/19 10:03:18;;;;;;;;;;;19.80;38.70;;;;;;5106657;27;19927;-54
2022/01/19 10:05:58;;;;;;;;;;;19.80;38.80;;;;;;5104977;28;19977;-51
2022/01/19 10:08:37;;;;;;;;;;;19.80;38.70;;;;;;5107567;27;19927;-53
2022/01/19 10:11:10;;;;;;;;;;;19.80;38.60;;;;;;5103010;28;19927;-45
2022/01/19 10:19:15;;;;;;;;;;;19.80;38.80;;;;;;5111317;27;19923;-44
2022/01/19 10:21:58;;;;;;;;;;;19.80;38.90;;;;;;5127468;27;19924;-44
2022/01/19 10:24:41;;;;;;;;;;;19.80;39.00;;;;;;5123553;27;20000;-47
2022/01/19 10:27:27;;;;;;;;;;;19.80;39.10;;;;;;5103609;27;19935;-43
2022/01/19 10:29:54;;;;;;;;;;;19.80;39.20;;;;;;5112731;27;20022;-46
2022/01/19 10:32:22;;;;;;;;;;;19.80;39.20;;;;;;5124132;27;19927;-48
2022/01/19 10:34:49;;;;;;;;;;;19.90;39.30;;;;;;5112266;27;20445;-47
2022/01/19 10:37:21;;;;;;;;;;;19.90;39.40;;;;;;5108207;27;19927;-48
2022/01/19 10:39:51;;;;;;;;;;;19.90;39.40;;;;;;5107883;27;20289;-48
2022/01/19 10:42:19;;;;;;;;;;;19.90;39.50;;;;;;5111337;27;20413;-47
2022/01/19 10:44:46;;;;;;;;;;;19.90;39.50;;;;;;5128893;27;19927;-46
2022/01/19 10:47:15;;;;;;;;;;;19.90;39.60;;;;;;5111208;27;19927;-48
2022/01/19 10:49:52;;;;;;;;;;;20.00;39.70;;;;;;5108475;27;19923;-47
2022/01/19 10:52:25;;;;;;;;;;;20.00;39.80;;;;;;5111042;27;19934;-48
2022/01/19 10:54:54;;;;;;;;;;;19.90;39.70;;;;;;5108822;27;19934;-46
2022/01/19 10:57:21;;;;;;;;;;;20.00;39.90;;;;;;5103601;27;20316;-48
2022/01/19 10:59:50;;;;;;;;;;;20.00;39.90;;;;;;5123866;27;20408;-47
2022/01/19 11:02:16;;;;;;;;;;;20.00;40.00;;;;;;5104330;27;19931;-44
2022/01/19 11:04:43;;;;;;;;;;;20.00;40.00;;;;;;5107900;27;19934;-46
2022/01/19 11:07:11;;;;;;;;;;;20.10;40.10;;;;;;5125705;27;20283;-49
2022/01/19 11:09:45;;;;;;;;;;;20.10;40.10;;;;;;5108540;27;19938;-49
2022/01/19 11:12:16;;;;;;;;;;;20.10;40.10;;;;;;5107837;27;20030;-48
2022/01/19 11:14:43;;;;;;;;;;;20.10;40.20;;;;;;5105542;27;20008;-50
2022/01/19 11:17:10;;;;;;;;;;;20.10;40.10;;;;;;5106660;27;19951;-49
2022/01/19 11:19:37;;;;;;;;;;;20.10;40.20;;;;;;5108904;28;19927;-50
2022/01/19 11:22:07;;;;;;;;;;;20.10;40.20;;;;;;5109478;27;19935;-46
2022/01/19 11:24:36;;;;;;;;;;;20.10;40.20;;;;;;5122630;27;19931;-44
2022/01/19 11:27:03;;;;;;;;;;;20.10;40.30;;;;;;5100921;27;20000;-47
2022/01/19 11:29:32;;;;;;;;;;;20.10;40.20;;;;;;5105130;27;19994;-45
2022/01/19 11:31:59;;;;;;;;;;;20.10;40.30;;;;;;5109395;27;20018;-47
2022/01/19 11:34:39;;;;;;;;;;;20.10;40.30;;;;;;5128751;27;20002;-46
2022/01/19 11:37:06;;;;;;;;;;;20.10;40.30;;;;;;5103997;27;20019;-44
2022/01/19 11:39:33;;;;;;;;;;;20.10;40.30;;;;;;5101590;28;19932;-50
2022/01/19 11:41:59;;;;;;;;;;;20.10;40.30;;;;;;5096560;28;19977;-45
2022/01/19 11:44:38;;;;;;;;;;;20.10;40.30;;;;;;5105668;28;20010;-44
2022/01/19 11:47:16;;;;;;;;;;;20.10;40.30;;;;;;5100002;28;20018;-49
2022/01/19 11:49:47;;;;;;;;;;;20.10;40.30;;;;;;5099459;28;19934;-46
2022/01/19 11:52:15;;;;;;;;;;;20.10;40.30;;;;;;5107376;28;19930;-48
2022/01/19 11:54:42;;;;;;;;;;;20.10;40.40;;;;;;5103672;28;19931;-46
2022/01/19 11:57:13;;;;;;;;;;;20.10;40.40;;;;;;5101374;28;19928;-53
2022/01/19 11:59:58;;;;;;;;;;;20.10;40.40;;;;;;5104656;28;19932;-42
2022/01/19 12:02:39;;;;;;;;;;;20.20;40.50;;;;;;5127412;27;19932;-43
2022/01/19 12:05:17;;;;;;;;;;;20.10;40.50;;;;;;5109231;28;19928;-49
2022/01/19 12:07:44;;;;;;;;;;;20.10;40.50;;;;;;5107785;28;20729;-44
2022/01/19 12:10:13;;;;;;;;;;;20.20;40.60;;;;;;5123241;27;20026;-46
2022/01/19 12:12:46;;;;;;;;;;;20.10;40.50;;;;;;5109881;27;19937;-45
2022/01/19 12:15:28;;;;;;;;;;;20.20;40.60;;;;;;5105024;27;19988;-48
2022/01/19 12:18:07;;;;;;;;;;;20.10;40.50;;;;;;5102971;27;19934;-44
2022/01/19 12:20:48;;;;;;;;;;;20.10;40.50;;;;;;5105534;27;19988;-47
2022/01/19 12:23:25;;;;;;;;;;;20.10;40.50;;;;;;5106469;27;19928;-44
2022/01/19 12:25:52;;;;;;;;;;;20.20;40.60;;;;;;5112727;27;20049;-46
2022/01/19 12:28:34;;;;;;;;;;;20.20;40.60;;;;;;5111275;27;19967;-44
2022/01/19 12:31:12;;;;;;;;;;;20.20;40.60;;;;;;5139514;27;19927;-45
2022/01/19 12:33:43;;;;;;;;;;;20.20;40.60;;;;;;5123836;27;20502;-46
2022/01/19 12:36:24;;;;;;;;;;;20.20;40.60;;;;;;5129663;27;19924;-46
2022/01/19 12:38:51;;;;;;;;;;;20.20;40.60;;;;;;5127402;27;19980;-44
2022/01/19 12:41:18;;;;;;;;;;;20.20;40.60;;;;;;5110960;27;20293;-43
2022/01/19 12:43:46;;;;;;;;;;;20.20;40.70;;;;;;5105050;27;20360;-50
2022/01/19 12:46:13;;;;;;;;;;;20.20;40.70;;;;;;5111539;27;19923;-47
2022/01/19 12:48:47;;;;;;;;;;;20.20;40.70;;;;;;5111514;27;20056;-49
2022/01/19 12:51:33;;;;;;;;;;;20.20;40.70;;;;;;5108963;27;19924;-46
2022/01/19 12:54:00;;;;;;;;;;;20.20;41.30;;;;;;5120127;27;20050;-49
2022/01/19 12:56:27;;;;;;;;;;;20.20;40.80;;;;;;5106725;27;19949;-47
2022/01/19 12:58:54;;;;;;;;;;;20.20;40.80;;;;;;5119251;27;19930;-45
2022/01/19 13:01:21;;;;;;;;;;;20.20;40.80;;;;;;5131356;27;20014;-48
2022/01/19 13:03:49;;;;;;;;;;;20.20;40.80;;;;;;5129248;27;19934;-45
2022/01/19 13:06:17;;;;;;;;;;;20.20;40.80;;;;;;5143502;27;19936;-46
2022/01/19 13:08:49;;;;;;;;;;;20.20;40.90;;;;;;5102170;27;19924;-49
2022/01/19 13:11:21;;;;;;;;;;;20.30;41.00;;;;;;5109524;27;20026;-47
2022/01/19 13:13:49;;;;;;;;;;;20.30;41.00;;;;;;5111301;27;19984;-49
2022/01/19 13:16:25;;;;;;;;;;;20.30;41.00;;;;;;5109016;27;19967;-46
2022/01/19 13:18:53;;;;;;;;;;;20.30;41.10;;;;;;5127979;27;20198;-50
2022/01/19 13:21:20;;;;;;;;;;;20.30;41.10;;;;;;5107049;27;19981;-45
2022/01/19 13:23:53;;;;;;;;;;;20.30;41.10;;;;;;5100492;28;20038;-46
2022/01/19 13:26:20;;;;;;;;;;;20.30;41.10;;;;;;5123932;27;19968;-44
2022/01/19 13:28:47;;;;;;;;;;;20.30;41.10;;;;;;5110020;27;19935;-47
2022/01/19 13:31:14;;;;;;;;;;;20.30;41.10;;;;;;5100426;27;19923;-48
2022/01/19 13:33:41;;;;;;;;;;;20.30;41.10;;;;;;5112443;27;20015;-44
2022/01/19 13:36:09;;;;;;;;;;;20.30;41.20;;;;;;5126467;27;19927;-47
2022/01/19 13:38:38;;;;;;;;;;;20.30;41.20;;;;;;5097148;28;20363;-50
2022/01/19 13:41:05;;;;;;;;;;;20.30;41.20;;;;;;5112802;27;20076;-50
2022/01/19 13:43:33;;;;;;;;;;;20.30;41.20;;;;;;5131092;27;19931;-47
2022/01/19 13:46:12;;;;;;;;;;;20.30;41.20;;;;;;5101480;28;19977;-47
2022/01/19 13:48:40;;;;;;;;;;;20.30;41.20;;;;;;5108757;27;19927;-46
2022/01/19 13:51:09;;;;;;;;;;;20.30;41.20;;;;;;5098334;27;19934;-46
2022/01/19 13:53:38;;;;;;;;;;;20.40;41.40;;;;;;5085627;27;20023;-47
2022/01/19 13:56:06;;;;;;;;;;;;;;;;;;5143633;27;20041;-49
2022/01/19 13:58:35;;;;;;;;;;;20.40;40.90;;;;;;5136591;27;20001;-45
2022/01/19 14:01:02;;;;;;;;;;;20.40;41.40;;;;;;5091104;27;19936;-49
2022/01/19 14:03:44;;;;;;;;;;;20.40;41.40;;;;;;5111800;27;19934;-47
2022/01/19 14:06:19;;;;;;;;;;;20.30;41.30;;;;;;5115351;27;19931;-45
2022/01/19 14:08:47;;;;;;;;;;;20.40;41.40;;;;;;5130518;27;19980;-49
2022/01/19 14:11:21;;;;;;;;;;;20.40;41.40;;;;;;5104833;28;19924;-47
2022/01/19 14:13:56;;;;;;;;;;;20.30;41.30;;;;;;5110074;27;19982;-49
2022/01/19 14:16:23;;;;;;;;;;;20.40;41.40;;;;;;5124692;27;19930;-46
2022/01/19 14:19:06;;;;;;;;;;;20.40;41.50;;;;;;5120570;27;20011;-46
2022/01/19 14:21:33;;;;;;;;;;;20.40;41.50;;;;;;5103177;27;20383;-50
2022/01/19 14:24:01;;;;;;;;;;;20.40;41.50;;;;;;5127310;27;19923;-45
2022/01/19 14:26:28;;;;;;;;;;;20.40;41.50;;;;;;5128855;27;19934;-47
2022/01/19 14:29:10;;;;;;;;;;;20.40;41.50;;;;;;5103767;27;19995;-47
2022/01/19 14:31:47;;;;;;;;;;;20.40;41.50;;;;;;5142659;27;19949;-46
2022/01/19 14:34:13;;;;;;;;;;;20.40;41.50;;;;;;5098223;27;19923;-43
2022/01/19 14:36:40;;;;;;;;;;;20.40;41.50;;;;;;5107329;27;19970;-46
2022/01/19 14:39:09;;;;;;;;;;;20.40;41.50;;;;;;5106932;27;19972;-49
2022/01/19 14:41:37;;;;;;;;;;;20.40;41.60;;;;;;5106184;27;20415;-45
2022/01/19 14:44:08;;;;;;;;;;;20.40;41.60;;;;;;5129267;27;20367;-49
2022/01/19 14:46:43;;;;;;;;;;;20.40;41.50;;;;;;5111559;27;20518;-50
2022/01/19 14:49:10;;;;;;;;;;;20.40;41.60;;;;;;5128656;27;20014;-49
2022/01/19 14:51:37;;;;;;;;;;;20.40;41.50;;;;;;5111057;27;20097;-45
2022/01/19 14:54:05;;;;;;;;;;;20.50;41.60;;;;;;5129447;27;20337;-48
2022/01/19 14:56:33;;;;;;;;;;;20.40;41.60;;;;;;5121094;27;19928;-48
2022/01/19 14:59:01;;;;;;;;;;;20.40;41.60;;;;;;5110409;27;19999;-53
2022/01/19 15:01:27;;;;;;;;;;;20.40;41.60;;;;;;5112581;27;19923;-50
2022/01/19 15:03:54;;;;;;;;;;;20.50;41.60;;;;;;5110121;27;19935;-49
2022/01/19 15:06:21;;;;;;;;;;;20.50;41.60;;;;;;5111248;27;20011;-51
2022/01/19 15:08:48;;;;;;;;;;;20.40;41.20;;;;;;5106388;27;19939;-48
2022/01/19 15:11:16;;;;;;;;;;;20.40;40.70;;;;;;5109035;27;20016;-51
2022/01/19 15:13:45;;;;;;;;;;;20.30;40.20;;;;;;5104798;27;19955;-52
2022/01/19 15:16:11;;;;;;;;;;;20.30;39.70;;;;;;5107772;27;19927;-46
2022/01/19 15:18:38;;;;;;;;;;;20.30;39.30;;;;;;5100122;27;19947;-49
2022/01/19 15:21:05;;;;;;;;;;;20.20;39.00;;;;;;5115686;27;19927;-56
2022/01/19 15:23:32;;;;;;;;;;;20.20;38.70;;;;;;5125689;27;20441;-50
2022/01/19 15:26:00;;;;;;;;;;;20.10;38.50;;;;;;5102887;27;19927;-53
2022/01/19 15:28:27;;;;;;;;;;;20.10;38.30;;;;;;5105336;27;19931;-51
2022/01/19 15:30:56;;;;;;;;;;;20.00;38.20;;;;;;5106413;27;19928;-51
2022/01/19 15:33:23;;;;;;;;;;;20.00;38.40;;;;;;5104766;27;20299;-47
2022/01/19 15:35:49;;;;;;;;;;;20.00;38.40;;;;;;5103398;28;19931;-51